createdAt,value
2024-01-22T00:00:39.464Z,53.14
2024-01-22T00:03:06.646Z,52.85
2024-01-22T00:05:33.977Z,52.67
2024-01-22T00:08:04.208Z,52.35
2024-01-22T00:10:31.265Z,52.34
2024-01-22T00:12:58.412Z,52.08
2024-01-22T00:15:25.404Z,51.84
2024-01-22T00:17:52.614Z,52.24
2024-01-22T00:20:20.052Z,51.41
2024-01-22T00:22:47.185Z,51.58
2024-01-22T00:25:14.472Z,51.90
2024-01-22T00:27:41.545Z,51.89
2024-01-22T00:30:09.238Z,51.65
2024-01-22T00:32:36.446Z,51.83
2024-01-22T00:35:03.714Z,51.85
2024-01-22T00:37:30.875Z,51.76
2024-01-22T00:39:57.847Z,52.37
2024-01-22T00:42:25.129Z,52.24
2024-01-22T00:44:56.478Z,52.87
2024-01-22T00:47:23.673Z,53.19
2024-01-22T00:49:50.863Z,52.44
2024-01-22T00:52:18.170Z,52.81
2024-01-22T00:54:45.234Z,52.36
2024-01-22T00:57:12.503Z,52.43
2024-01-22T00:59:39.607Z,52.30
2024-01-22T01:02:07.229Z,51.73
2024-01-22T01:04:34.285Z,51.61
2024-01-22T01:07:10.717Z,51.85
2024-01-22T01:09:41.886Z,51.48
2024-01-22T01:12:09.051Z,52.74
2024-01-22T01:14:36.106Z,52.62
2024-01-22T01:17:03.295Z,51.74
2024-01-22T01:19:30.363Z,51.73
2024-01-22T01:21:57.401Z,51.59
2024-01-22T01:24:24.514Z,51.06
2024-01-22T01:26:51.603Z,50.64
2024-01-22T01:29:18.611Z,51.85
2024-01-22T01:31:45.753Z,52.13
2024-01-22T01:34:12.839Z,52.79
2024-01-22T01:36:39.893Z,52.00
2024-01-22T01:39:07.195Z,54.14
2024-01-22T01:41:34.430Z,54.73
2024-01-22T01:44:01.575Z,55.24
2024-01-22T01:46:28.654Z,54.88
2024-01-22T01:48:57.373Z,54.87
2024-01-22T01:51:25.689Z,54.36
2024-01-22T01:53:54.713Z,53.73
2024-01-22T01:56:24.920Z,54.25
2024-01-22T01:58:53.012Z,55.10
2024-01-22T02:01:21.328Z,55.09
2024-01-22T02:03:49.127Z,55.25
2024-01-22T02:06:16.685Z,55.67
2024-01-22T02:08:53.885Z,55.44
2024-01-22T02:11:22.331Z,54.97
2024-01-22T02:13:49.724Z,54.64
2024-01-22T02:16:16.945Z,54.72
2024-01-22T02:18:44.261Z,54.25
2024-01-22T02:21:11.720Z,54.47
2024-01-22T02:23:39.040Z,53.47
2024-01-22T02:26:06.256Z,53.44
2024-01-22T02:28:33.500Z,53.74
2024-01-22T02:31:01.017Z,52.83
2024-01-22T02:33:28.108Z,52.60
2024-01-22T02:35:55.303Z,53.17
2024-01-22T02:38:22.357Z,53.72
2024-01-22T02:40:49.532Z,53.94
2024-01-22T02:43:16.535Z,53.73
2024-01-22T02:45:43.651Z,53.38
2024-01-22T02:48:10.723Z,53.59
2024-01-22T02:50:37.890Z,53.30
2024-01-22T02:53:05.160Z,53.24
2024-01-22T02:55:32.334Z,53.51
2024-01-22T02:57:59.343Z,53.03
2024-01-22T03:00:26.874Z,53.59
2024-01-22T03:02:54.065Z,53.79
2024-01-22T03:05:21.194Z,53.26
2024-01-22T03:07:48.257Z,52.97
2024-01-22T03:10:16.030Z,52.27
2024-01-22T03:12:43.099Z,52.07
2024-01-22T03:15:10.511Z,51.81
2024-01-22T03:17:37.826Z,51.60
2024-01-22T03:20:05.524Z,52.13
2024-01-22T03:22:32.585Z,51.46
2024-01-22T03:24:59.692Z,51.45
2024-01-22T03:27:26.804Z,51.63
2024-01-22T03:29:54.096Z,51.39
2024-01-22T03:32:21.289Z,51.03
2024-01-22T03:34:48.609Z,51.57
2024-01-22T03:37:15.733Z,51.36
2024-01-22T03:39:42.938Z,50.79
2024-01-22T03:42:09.925Z,50.69
2024-01-22T03:44:37.038Z,50.39
2024-01-22T03:47:04.045Z,51.39
2024-01-22T03:49:31.241Z,51.72
2024-01-22T03:51:58.314Z,51.75
2024-01-22T03:54:25.382Z,52.00
2024-01-22T03:56:52.478Z,52.54
2024-01-22T03:59:19.793Z,51.90
2024-01-22T04:01:49.186Z,51.62
2024-01-22T04:04:16.382Z,52.24
2024-01-22T04:06:43.612Z,52.68
2024-01-22T04:09:10.835Z,52.84
2024-01-22T04:11:37.966Z,53.18
2024-01-22T04:14:05.100Z,52.99
2024-01-22T04:16:32.084Z,53.07
2024-01-22T04:18:59.334Z,53.80
2024-01-22T04:21:26.494Z,53.32
2024-01-22T04:23:54.616Z,53.52
2024-01-22T04:26:21.719Z,52.58
2024-01-22T04:28:48.833Z,52.62
2024-01-22T04:31:15.851Z,53.00
2024-01-22T04:33:45.863Z,53.26
2024-01-22T04:36:13.182Z,53.41
2024-01-22T04:38:40.287Z,53.55
2024-01-22T04:41:07.337Z,53.92
2024-01-22T04:43:34.417Z,54.79
2024-01-22T04:46:01.381Z,54.69
2024-01-22T04:48:28.575Z,54.96
2024-01-22T04:50:55.672Z,54.29
2024-01-22T04:53:22.704Z,54.15
2024-01-22T04:55:49.773Z,53.57
2024-01-22T04:58:16.819Z,54.70
2024-01-22T05:00:43.839Z,54.47
2024-01-22T05:03:10.942Z,53.81
2024-01-22T05:05:38.744Z,54.66
2024-01-22T05:08:06.640Z,54.45
2024-01-22T05:10:33.794Z,54.02
2024-01-22T05:13:01.038Z,53.62
2024-01-22T05:15:29.341Z,54.13
2024-01-22T05:17:56.546Z,54.15
2024-01-22T05:20:23.703Z,53.99
2024-01-22T05:22:50.719Z,53.84
2024-01-22T05:25:17.720Z,53.93
2024-01-22T05:27:44.802Z,53.85
2024-01-22T05:30:12.305Z,53.72
2024-01-22T05:32:39.515Z,53.27
2024-01-22T05:35:06.922Z,53.14
2024-01-22T05:37:33.958Z,53.69
2024-01-22T05:40:01.181Z,52.41
2024-01-22T05:42:28.260Z,53.71
2024-01-22T05:44:55.306Z,53.53
2024-01-22T05:47:22.375Z,53.63
2024-01-22T05:49:49.425Z,53.95
2024-01-22T05:52:16.472Z,53.31
2024-01-22T05:54:43.434Z,53.59
2024-01-22T05:57:10.465Z,53.30
2024-01-22T05:59:39.790Z,52.91
2024-01-22T06:02:07.088Z,53.11
2024-01-22T06:04:34.150Z,52.71
2024-01-22T06:07:05.372Z,52.50
2024-01-22T06:09:33.373Z,52.77
2024-01-22T06:12:00.540Z,52.39
2024-01-22T06:14:27.626Z,52.40
2024-01-22T06:16:54.649Z,51.61
2024-01-22T06:19:21.766Z,50.95
2024-01-22T06:21:48.816Z,50.91
2024-01-22T06:24:16.301Z,50.85
2024-01-22T06:26:43.534Z,50.55
2024-01-22T06:29:10.559Z,50.59
2024-01-22T06:31:37.499Z,50.64
2024-01-22T06:34:04.853Z,50.62
2024-01-22T06:36:31.884Z,50.14
2024-01-22T06:38:59.185Z,50.71
2024-01-22T06:41:26.213Z,49.74
2024-01-22T06:43:53.317Z,49.65
2024-01-22T06:46:20.316Z,49.89
2024-01-22T06:48:47.562Z,49.47
2024-01-22T06:51:14.703Z,49.29
2024-01-22T06:53:41.918Z,49.96
2024-01-22T06:56:11.741Z,49.79
2024-01-22T06:58:38.755Z,49.34
2024-01-22T07:01:06.000Z,49.40
2024-01-22T07:03:33.373Z,48.76
2024-01-22T07:06:03.992Z,48.62
2024-01-22T07:08:34.347Z,48.47
2024-01-22T07:11:01.560Z,48.16
2024-01-22T07:13:28.618Z,47.45
2024-01-22T07:15:55.894Z,45.88
2024-01-22T07:18:23.164Z,45.87
2024-01-22T07:20:50.330Z,44.75
2024-01-22T07:23:17.441Z,45.09
2024-01-22T07:25:49.675Z,44.34
2024-01-22T07:28:16.871Z,43.71
2024-01-22T07:30:43.858Z,43.36
2024-01-22T07:33:11.102Z,43.24
2024-01-22T07:35:38.331Z,42.74
2024-01-22T07:38:05.540Z,42.79
2024-01-22T07:40:32.771Z,43.79
2024-01-22T07:43:00.314Z,42.68
2024-01-22T07:45:27.377Z,42.28
2024-01-22T07:47:54.976Z,41.87
2024-01-22T07:50:22.051Z,42.46
2024-01-22T07:52:49.203Z,42.12
2024-01-22T07:55:16.648Z,41.32
2024-01-22T07:57:43.767Z,41.07
2024-01-22T08:00:11.328Z,40.82
2024-01-22T08:02:42.021Z,41.06
2024-01-22T08:05:09.747Z,41.13
2024-01-22T08:07:39.334Z,41.43
2024-01-22T08:10:06.826Z,40.38
2024-01-22T08:12:36.408Z,40.42
2024-01-22T08:15:04.059Z,39.77
2024-01-22T08:17:33.754Z,39.82
2024-01-22T08:20:03.207Z,40.16
2024-01-22T08:22:30.383Z,39.14
2024-01-22T08:24:57.350Z,40.26
2024-01-22T08:27:24.494Z,39.96
2024-01-22T08:29:51.604Z,39.80
2024-01-22T08:32:18.744Z,38.17
2024-01-22T08:34:46.092Z,39.17
2024-01-22T08:37:13.273Z,38.40
2024-01-22T08:39:40.729Z,38.42
2024-01-22T08:42:07.818Z,38.94
2024-01-22T08:44:36.149Z,38.15
2024-01-22T08:47:03.882Z,37.85
2024-01-22T08:49:31.451Z,38.04
2024-01-22T08:51:59.160Z,38.17
2024-01-22T08:54:26.477Z,37.43
2024-01-22T08:56:53.578Z,37.69
2024-01-22T08:59:21.282Z,38.09
2024-01-22T09:01:48.739Z,37.90
2024-01-22T09:04:15.895Z,37.98
2024-01-22T09:06:43.278Z,37.84
2024-01-22T09:09:14.046Z,37.32
2024-01-22T09:11:41.418Z,37.53
2024-01-22T09:14:10.534Z,37.97
2024-01-22T09:16:37.725Z,37.54
2024-01-22T09:19:07.623Z,37.90
2024-01-22T09:21:34.960Z,38.64
2024-01-22T09:24:01.946Z,38.66
2024-01-22T09:26:29.361Z,38.44
2024-01-22T09:28:56.441Z,38.33
2024-01-22T09:31:23.650Z,38.03
2024-01-22T09:33:50.720Z,37.93
2024-01-22T09:36:18.798Z,37.79
2024-01-22T09:38:46.360Z,37.28
2024-01-22T09:41:15.121Z,38.26
2024-01-22T09:43:44.000Z,38.17
2024-01-22T09:46:11.814Z,37.83
2024-01-22T09:48:39.144Z,38.56
2024-01-22T09:51:07.124Z,37.97
2024-01-22T09:53:38.445Z,38.42
2024-01-22T09:56:09.455Z,38.92
2024-01-22T09:58:53.573Z,39.81
2024-01-22T10:01:20.938Z,39.58
2024-01-22T10:03:51.231Z,39.79
2024-01-22T10:06:18.746Z,39.77
2024-01-22T10:08:58.172Z,39.72
2024-01-22T10:11:28.280Z,39.84
2024-01-22T10:13:57.839Z,39.94
2024-01-22T10:16:31.773Z,40.44
2024-01-22T10:19:03.431Z,40.05
2024-01-22T10:21:31.524Z,40.37
2024-01-22T10:24:03.168Z,40.07
2024-01-22T10:26:33.551Z,40.20
2024-01-22T10:29:20.216Z,39.64
2024-01-22T10:32:01.433Z,39.84
2024-01-22T10:34:42.840Z,39.89
2024-01-22T10:37:11.863Z,40.13
2024-01-22T10:39:43.379Z,40.37
2024-01-22T10:42:15.096Z,40.64
2024-01-22T10:44:47.694Z,41.13
2024-01-22T10:47:16.317Z,40.99
2024-01-22T10:49:49.637Z,41.59
2024-01-22T10:52:20.187Z,41.67
2024-01-22T10:54:50.828Z,41.46
2024-01-22T10:57:30.458Z,42.02
2024-01-22T11:00:03.348Z,42.13
2024-01-22T11:02:36.587Z,41.28
2024-01-22T11:05:12.733Z,41.12
2024-01-22T11:07:41.361Z,41.07
2024-01-22T11:10:15.673Z,40.92
2024-01-22T11:12:55.158Z,41.22
2024-01-22T11:15:22.266Z,40.96
2024-01-22T11:17:49.715Z,40.93
2024-01-22T11:20:17.471Z,40.76
2024-01-22T11:23:03.550Z,40.80
2024-01-22T11:25:30.933Z,40.03
2024-01-22T11:28:11.592Z,40.71
2024-01-22T11:30:43.165Z,41.35
2024-01-22T11:33:22.927Z,40.87
2024-01-22T11:35:50.732Z,41.08
2024-01-22T11:38:46.221Z,41.38
2024-01-22T11:41:21.654Z,41.48
2024-01-22T11:43:52.077Z,41.51
2024-01-22T11:46:21.623Z,41.62
2024-01-22T11:48:57.551Z,41.81
2024-01-22T11:51:30.854Z,42.64
2024-01-22T11:53:59.154Z,42.37
2024-01-22T11:56:26.419Z,42.71
2024-01-22T11:59:04.064Z,42.82
2024-01-22T12:01:34.234Z,42.80
2024-01-22T12:04:17.379Z,43.73
2024-01-22T12:06:52.033Z,42.64
2024-01-22T12:09:21.261Z,42.99
2024-01-22T12:11:54.154Z,42.92
2024-01-22T12:14:22.230Z,42.79
2024-01-22T12:17:02.498Z,42.45
2024-01-22T12:19:32.440Z,43.30
2024-01-22T12:22:02.770Z,42.38
2024-01-22T12:24:30.034Z,41.00
2024-01-22T12:26:58.394Z,38.85
2024-01-22T12:29:27.555Z,39.23
2024-01-22T12:32:11.294Z,39.11
2024-01-22T12:34:41.306Z,40.12
2024-01-22T12:37:31.856Z,40.59
2024-01-22T12:40:13.074Z,41.72
2024-01-22T12:42:40.401Z,40.99
2024-01-22T12:45:11.389Z,41.46
2024-01-22T12:47:40.188Z,42.30
2024-01-22T12:50:09.437Z,42.64
2024-01-22T12:52:37.139Z,42.76
2024-01-22T12:55:04.414Z,42.44
2024-01-22T12:57:31.755Z,43.64
2024-01-22T12:59:59.211Z,43.82
2024-01-22T13:02:26.562Z,44.18
2024-01-22T13:04:53.649Z,44.51
2024-01-22T13:07:20.953Z,45.20
2024-01-22T13:09:48.079Z,45.53
2024-01-22T13:12:17.154Z,45.06
2024-01-22T13:14:44.352Z,45.58
2024-01-22T13:17:11.543Z,46.11
2024-01-22T13:19:41.672Z,46.67
2024-01-22T13:22:11.058Z,46.74
2024-01-22T13:24:38.128Z,46.86
2024-01-22T13:27:05.607Z,47.31
2024-01-22T13:29:33.013Z,47.05
2024-01-22T13:32:00.321Z,47.63
2024-01-22T13:34:27.536Z,47.71
2024-01-22T13:36:55.629Z,48.61
2024-01-22T13:39:23.132Z,49.51
2024-01-22T13:41:50.372Z,49.98
2024-01-22T13:44:22.557Z,49.64
2024-01-22T13:46:50.928Z,50.09
2024-01-22T13:49:18.647Z,50.13
2024-01-22T13:51:45.835Z,50.68
2024-01-22T13:54:13.539Z,51.32
2024-01-22T13:56:40.907Z,51.89
2024-01-22T13:59:08.058Z,51.19
2024-01-22T14:01:35.947Z,52.10
2024-01-22T14:04:03.213Z,51.98
2024-01-22T14:06:30.786Z,51.93
2024-01-22T14:08:58.500Z,52.82
2024-01-22T14:11:25.825Z,53.28
2024-01-22T14:13:53.742Z,53.40
2024-01-22T14:16:20.939Z,53.47
2024-01-22T14:18:48.847Z,53.43
2024-01-22T14:21:17.570Z,53.68
2024-01-22T14:23:46.086Z,53.60
2024-01-22T14:26:16.079Z,53.62
2024-01-22T14:28:44.138Z,53.41
2024-01-22T14:31:12.482Z,53.05
2024-01-22T14:33:39.748Z,52.10
2024-01-22T14:36:08.508Z,52.19
2024-01-22T14:38:36.470Z,53.04
2024-01-22T14:41:06.598Z,53.36
2024-01-22T14:43:33.857Z,53.41
2024-01-22T14:46:01.088Z,53.35
2024-01-22T14:48:28.296Z,53.23
2024-01-22T14:50:55.589Z,53.53
2024-01-22T14:53:22.753Z,53.36
2024-01-22T14:55:52.617Z,53.81
2024-01-22T14:58:19.665Z,53.86
2024-01-22T15:00:46.653Z,54.21
2024-01-22T15:03:14.021Z,53.54
2024-01-22T15:05:41.338Z,53.71
2024-01-22T15:08:08.433Z,54.11
2024-01-22T15:10:41.699Z,54.37
2024-01-22T15:13:09.423Z,55.15
2024-01-22T15:15:37.582Z,55.20
2024-01-22T15:18:08.585Z,54.69
2024-01-22T15:20:35.976Z,54.62
2024-01-22T15:23:03.311Z,54.76
2024-01-22T15:25:34.383Z,55.33
2024-01-22T15:28:01.625Z,55.03
2024-01-22T15:30:30.640Z,54.97
2024-01-22T15:32:58.045Z,54.47
2024-01-22T15:35:25.421Z,55.08
2024-01-22T15:37:54.761Z,55.13
2024-01-22T15:40:22.092Z,55.16
2024-01-22T15:42:49.324Z,55.17
2024-01-22T15:45:16.539Z,54.95
2024-01-22T15:47:44.430Z,55.25
2024-01-22T15:50:11.964Z,55.37
2024-01-22T15:52:40.157Z,56.25
2024-01-22T15:55:07.618Z,56.00
2024-01-22T15:57:39.354Z,55.98
2024-01-22T16:00:08.161Z,56.32
2024-01-22T16:02:38.688Z,56.09
2024-01-22T16:05:06.495Z,56.43
2024-01-22T16:07:33.729Z,57.34
2024-01-22T16:10:01.049Z,57.43
2024-01-22T16:12:28.869Z,56.56
2024-01-22T16:14:56.222Z,56.75
2024-01-22T16:17:24.124Z,56.72
2024-01-22T16:19:51.667Z,57.38
2024-01-22T16:22:18.945Z,57.06
2024-01-22T16:24:46.279Z,56.72
2024-01-22T16:27:15.788Z,56.39
2024-01-22T16:29:46.084Z,55.90
2024-01-22T16:32:15.938Z,55.86
2024-01-22T16:34:43.211Z,55.60
2024-01-22T16:37:10.731Z,55.43
2024-01-22T16:39:38.295Z,55.32
2024-01-22T16:42:11.470Z,54.85
2024-01-22T16:44:38.784Z,54.99
2024-01-22T16:47:24.440Z,54.74
2024-01-22T16:50:11.284Z,54.84
2024-01-22T16:52:41.599Z,54.93
2024-01-22T16:55:11.450Z,55.54
2024-01-22T16:57:39.789Z,55.36
2024-01-22T17:00:07.710Z,56.58
2024-01-22T17:02:35.152Z,56.41
2024-01-22T17:05:07.742Z,56.85
2024-01-22T17:07:37.523Z,56.74
2024-01-22T17:10:10.071Z,56.23
2024-01-22T17:12:37.175Z,56.20
2024-01-22T17:15:05.635Z,56.32
2024-01-22T17:17:32.895Z,56.84
2024-01-22T17:20:00.165Z,57.38
2024-01-22T17:22:28.926Z,57.65
2024-01-22T17:24:56.121Z,57.65
2024-01-22T17:27:23.438Z,57.94
2024-01-22T17:29:50.641Z,57.89
2024-01-22T17:32:18.193Z,58.60
2024-01-22T17:34:45.681Z,58.39
2024-01-22T17:37:13.810Z,58.33
2024-01-22T17:39:46.524Z,58.29
2024-01-22T17:42:21.698Z,58.31
2024-01-22T17:44:55.082Z,58.38
2024-01-22T17:47:22.466Z,58.46
2024-01-22T17:49:49.676Z,58.96
2024-01-22T17:52:16.992Z,59.66
2024-01-22T17:54:44.296Z,59.59
2024-01-22T17:57:11.792Z,59.86
2024-01-22T17:59:38.975Z,60.09
2024-01-22T18:02:06.871Z,60.79
2024-01-22T18:04:34.338Z,62.29
2024-01-22T18:07:01.751Z,62.86
2024-01-22T18:09:30.077Z,63.18
2024-01-22T18:11:57.396Z,63.58
2024-01-22T18:14:24.516Z,63.18
2024-01-22T18:16:51.738Z,63.07
2024-01-22T18:19:19.622Z,62.93
2024-01-22T18:21:47.069Z,62.91
2024-01-22T18:24:15.486Z,62.17
2024-01-22T18:26:42.761Z,62.07
2024-01-22T18:29:09.842Z,61.19
2024-01-22T18:31:37.102Z,60.96
2024-01-22T18:34:06.564Z,61.17
2024-01-22T18:36:39.134Z,60.77
2024-01-22T18:46:53.869Z,60.82
2024-01-22T18:49:21.259Z,60.10
2024-01-22T18:51:48.823Z,60.03
2024-01-22T18:54:16.401Z,59.46
2024-01-22T18:56:44.305Z,59.69
2024-01-22T18:59:11.483Z,59.20
2024-01-22T19:01:38.736Z,58.87
2024-01-22T19:04:06.293Z,59.51
2024-01-22T19:06:35.351Z,59.43
2024-01-22T19:09:02.924Z,59.66
2024-01-22T19:11:36.987Z,59.26
2024-01-22T19:14:19.489Z,59.06
2024-01-22T19:16:46.917Z,59.09
2024-01-22T19:19:37.965Z,58.98
2024-01-22T19:22:18.525Z,59.18
2024-01-22T19:24:45.723Z,58.52
2024-01-22T19:27:14.468Z,58.14
2024-01-22T19:29:41.578Z,58.16
2024-01-22T19:32:09.294Z,58.77
2024-01-22T19:34:40.500Z,59.06
2024-01-22T19:37:08.082Z,58.61
2024-01-22T19:39:35.157Z,59.03
2024-01-22T19:42:02.492Z,58.74
2024-01-22T19:44:29.496Z,58.46
2024-01-22T19:46:56.710Z,59.23
2024-01-22T19:49:23.692Z,57.67
2024-01-22T19:51:50.877Z,57.87
2024-01-22T19:54:18.131Z,57.33
2024-01-22T19:56:45.985Z,57.62
2024-01-22T19:59:13.314Z,56.96
2024-01-22T20:01:40.528Z,57.14
2024-01-22T20:04:08.575Z,57.00
2024-01-22T20:06:35.841Z,56.81
2024-01-22T20:09:03.021Z,56.41
2024-01-22T20:11:30.239Z,56.09
2024-01-22T20:13:57.243Z,55.60
2024-01-22T20:16:24.424Z,55.78
2024-01-22T20:18:53.819Z,55.90
2024-01-22T20:21:21.723Z,55.95
2024-01-22T20:23:56.637Z,55.80
2024-01-22T20:26:32.539Z,56.10
2024-01-22T20:28:59.593Z,55.38
2024-01-22T20:31:26.650Z,55.76
2024-01-22T20:33:53.858Z,55.82
2024-01-22T20:36:23.052Z,55.90
2024-01-22T20:38:50.202Z,55.97
2024-01-22T20:41:17.393Z,56.29
2024-01-22T20:43:44.450Z,55.97
2024-01-22T20:46:11.574Z,55.73
2024-01-22T20:48:38.950Z,55.79
2024-01-22T20:51:06.710Z,56.85
2024-01-22T20:53:33.742Z,57.06
2024-01-22T20:56:01.670Z,57.71
2024-01-22T20:58:31.104Z,58.21
2024-01-22T21:00:58.586Z,58.75
2024-01-22T21:03:25.915Z,59.05
2024-01-22T21:05:53.538Z,58.70
2024-01-22T21:08:20.703Z,58.68
2024-01-22T21:10:47.854Z,58.65
2024-01-22T21:13:15.265Z,58.53
2024-01-22T21:15:42.482Z,58.67
2024-01-22T21:18:09.742Z,58.96
2024-01-22T21:20:37.429Z,58.67
2024-01-22T21:23:04.757Z,59.53
2024-01-22T21:25:31.931Z,59.30
2024-01-22T21:27:58.893Z,58.73
2024-01-22T21:30:26.223Z,57.94
2024-01-22T21:32:54.226Z,58.29
2024-01-22T21:35:21.303Z,57.79
2024-01-22T21:37:49.541Z,58.03
2024-01-22T21:40:16.707Z,58.03
2024-01-22T21:42:43.948Z,58.87
2024-01-22T21:45:10.978Z,59.28
2024-01-22T21:47:38.024Z,59.26
2024-01-22T21:50:05.338Z,59.80
2024-01-22T21:52:32.439Z,59.84
2024-01-22T21:54:59.969Z,59.65
2024-01-22T21:57:27.220Z,60.92
2024-01-22T21:59:54.323Z,61.16
2024-01-22T22:02:21.933Z,61.73
2024-01-22T22:04:49.265Z,61.64
2024-01-22T22:07:16.407Z,60.98
2024-01-22T22:09:43.657Z,61.13
2024-01-22T22:12:11.739Z,61.34
2024-01-22T22:14:38.776Z,61.21
2024-01-22T22:17:06.274Z,61.98
2024-01-22T22:19:33.735Z,62.29
2024-01-22T22:22:00.939Z,62.24
2024-01-22T22:24:28.030Z,62.50
2024-01-22T22:26:55.168Z,62.71
2024-01-22T22:29:22.315Z,62.21
2024-01-22T22:31:49.309Z,61.61
2024-01-22T22:34:16.847Z,61.17
2024-01-22T22:36:44.163Z,61.56
2024-01-22T22:39:11.314Z,61.60
2024-01-22T22:41:41.408Z,61.70
2024-01-22T22:44:08.540Z,62.72
2024-01-22T22:46:35.526Z,63.35
2024-01-22T22:49:02.636Z,63.65
2024-01-22T22:51:29.648Z,63.88
2024-01-22T22:53:56.892Z,64.33
2024-01-22T22:56:24.004Z,64.85
2024-01-22T22:58:51.033Z,64.85
2024-01-22T23:01:18.046Z,65.05
2024-01-22T23:03:45.295Z,66.08
2024-01-22T23:06:12.734Z,66.08
2024-01-22T23:08:39.802Z,66.69
2024-01-22T23:11:06.857Z,65.69
2024-01-22T23:13:33.861Z,65.31
2024-01-22T23:16:00.878Z,65.36
2024-01-22T23:18:28.037Z,64.50
2024-01-22T23:20:55.258Z,64.52
2024-01-22T23:23:22.278Z,64.29
2024-01-22T23:25:49.327Z,64.06
2024-01-22T23:28:16.303Z,64.75
2024-01-22T23:30:43.389Z,64.45
2024-01-22T23:33:10.477Z,63.64
2024-01-22T23:35:37.587Z,63.04
2024-01-22T23:38:04.829Z,62.85
2024-01-22T23:40:31.882Z,63.10
2024-01-22T23:42:58.882Z,62.94
2024-01-22T23:46:07.250Z,62.20
2024-01-22T23:52:19.884Z,62.01
2024-01-22T23:54:46.917Z,61.72
2024-01-22T23:57:13.906Z,62.16
2024-01-22T23:59:42.230Z,62.08
